Dodson, Montana
Current Conditions -  °F | °C
As of 7:53 AM on Saturday 22 Nov 2014 (Local Time) from KHVR Reporting Station
Clear Clear  
Wind Chill: 35°   Ceiling: Unl
Heat Index: 44°   Visibility: 10mi
Dew Point: 33°   Wind: 24mph
Humidity: 65%   Direction: 220°SW
Pressure: 29.19"   Gusts: 31mph
Location:  48.4°N, 108.24°W
Report Text: KHVR 221453Z AUTO 22021G27KT 10SM CLR 07/01 A2919 RMK AO2 PK WND 22028/1423 SLP894 T00670006 55023
Loading
Personal Weather Stations






























Interactive Weather Map New forecast layout! Learn more

10-Day Weather Forecast

Advertisements
Track Severe Weather on mobile